sensor_id;sensor_type;location;lat;lon;timestamp;P1;durP1;ratioP1;P2;durP2;ratioP2
31978;SDS011;18502;43.574;1.276;2023-06-05T00:00:52;3.53;;;1.73;;
31978;SDS011;18502;43.574;1.276;2023-06-05T00:03:18;3.20;;;2.05;;
31978;SDS011;18502;43.574;1.276;2023-06-05T00:05:44;2.55;;;2.35;;
31978;SDS011;18502;43.574;1.276;2023-06-05T00:08:10;3.78;;;2.00;;
31978;SDS011;18502;43.574;1.276;2023-06-05T00:10:36;3.65;;;2.35;;
31978;SDS011;18502;43.574;1.276;2023-06-05T00:13:02;2.95;;;1.95;;
31978;SDS011;18502;43.574;1.276;2023-06-05T00:15:28;4.55;;;2.25;;
31978;SDS011;18502;43.574;1.276;2023-06-05T00:17:56;3.65;;;2.20;;
31978;SDS011;18502;43.574;1.276;2023-06-05T00:20:21;3.75;;;1.90;;
31978;SDS011;18502;43.574;1.276;2023-06-05T00:22:47;4.25;;;2.45;;
31978;SDS011;18502;43.574;1.276;2023-06-05T00:25:13;5.68;;;2.20;;
31978;SDS011;18502;43.574;1.276;2023-06-05T00:27:39;4.53;;;2.15;;
31978;SDS011;18502;43.574;1.276;2023-06-05T00:30:06;3.00;;;1.90;;
31978;SDS011;18502;43.574;1.276;2023-06-05T00:32:34;5.15;;;2.35;;
31978;SDS011;18502;43.574;1.276;2023-06-05T00:35:00;4.80;;;2.63;;
31978;SDS011;18502;43.574;1.276;2023-06-05T00:37:27;3.10;;;2.40;;
31978;SDS011;18502;43.574;1.276;2023-06-05T00:39:52;4.30;;;2.40;;
31978;SDS011;18502;43.574;1.276;2023-06-05T00:42:18;5.82;;;2.47;;
31978;SDS011;18502;43.574;1.276;2023-06-05T00:44:44;5.15;;;2.40;;
31978;SDS011;18502;43.574;1.276;2023-06-05T00:47:11;4.18;;;2.30;;
31978;SDS011;18502;43.574;1.276;2023-06-05T00:49:37;5.15;;;2.20;;
31978;SDS011;18502;43.574;1.276;2023-06-05T00:52:02;4.50;;;2.30;;
31978;SDS011;18502;43.574;1.276;2023-06-05T00:54:28;2.55;;;2.35;;
31978;SDS011;18502;43.574;1.276;2023-06-05T00:56:54;3.38;;;2.22;;
31978;SDS011;18502;43.574;1.276;2023-06-05T00:59:20;6.45;;;2.72;;
31978;SDS011;18502;43.574;1.276;2023-06-05T01:01:46;4.40;;;2.38;;
31978;SDS011;18502;43.574;1.276;2023-06-05T01:04:13;3.95;;;2.83;;
31978;SDS011;18502;43.574;1.276;2023-06-05T01:06:39;5.75;;;2.75;;
31978;SDS011;18502;43.574;1.276;2023-06-05T01:09:08;3.40;;;2.42;;
31978;SDS011;18502;43.574;1.276;2023-06-05T01:11:40;4.35;;;2.67;;
31978;SDS011;18502;43.574;1.276;2023-06-05T01:16:53;6.00;;;2.78;;
31978;SDS011;18502;43.574;1.276;2023-06-05T01:19:23;4.03;;;2.65;;
31978;SDS011;18502;43.574;1.276;2023-06-05T01:21:57;3.10;;;2.65;;
31978;SDS011;18502;43.574;1.276;2023-06-05T01:24:24;4.43;;;2.50;;
31978;SDS011;18502;43.574;1.276;2023-06-05T01:32:23;4.18;;;2.97;;
31978;SDS011;18502;43.574;1.276;2023-06-05T01:35:22;3.60;;;2.70;;
31978;SDS011;18502;43.574;1.276;2023-06-05T01:38:08;5.78;;;2.95;;
31978;SDS011;18502;43.574;1.276;2023-06-05T01:40:36;5.95;;;3.47;;
31978;SDS011;18502;43.574;1.276;2023-06-05T01:43:03;4.95;;;3.40;;
31978;SDS011;18502;43.574;1.276;2023-06-05T01:45:30;3.85;;;2.58;;
31978;SDS011;18502;43.574;1.276;2023-06-05T01:47:56;6.68;;;3.13;;
31978;SDS011;18502;43.574;1.276;2023-06-05T01:50:22;4.10;;;3.25;;
31978;SDS011;18502;43.574;1.276;2023-06-05T01:52:49;5.00;;;2.90;;
31978;SDS011;18502;43.574;1.276;2023-06-05T01:55:20;4.68;;;2.85;;
31978;SDS011;18502;43.574;1.276;2023-06-05T01:57:51;3.80;;;2.40;;
31978;SDS011;18502;43.574;1.276;2023-06-05T02:00:18;7.95;;;2.92;;
31978;SDS011;18502;43.574;1.276;2023-06-05T02:02:45;6.18;;;2.78;;
31978;SDS011;18502;43.574;1.276;2023-06-05T02:05:12;5.18;;;3.30;;
31978;SDS011;18502;43.574;1.276;2023-06-05T02:07:39;6.13;;;2.95;;
31978;SDS011;18502;43.574;1.276;2023-06-05T02:10:18;5.15;;;3.20;;
31978;SDS011;18502;43.574;1.276;2023-06-05T02:12:44;7.47;;;3.60;;
31978;SDS011;18502;43.574;1.276;2023-06-05T02:15:11;5.72;;;3.15;;
31978;SDS011;18502;43.574;1.276;2023-06-05T02:17:44;5.00;;;3.03;;
31978;SDS011;18502;43.574;1.276;2023-06-05T02:20:15;5.10;;;3.33;;
31978;SDS011;18502;43.574;1.276;2023-06-05T02:22:41;6.47;;;3.80;;
31978;SDS011;18502;43.574;1.276;2023-06-05T02:25:07;4.70;;;3.58;;
31978;SDS011;18502;43.574;1.276;2023-06-05T02:27:35;4.15;;;3.35;;
31978;SDS011;18502;43.574;1.276;2023-06-05T02:30:01;5.45;;;3.47;;
31978;SDS011;18502;43.574;1.276;2023-06-05T02:32:27;6.72;;;3.20;;
31978;SDS011;18502;43.574;1.276;2023-06-05T02:34:53;7.32;;;3.75;;
31978;SDS011;18502;43.574;1.276;2023-06-05T02:37:22;4.90;;;3.85;;
31978;SDS011;18502;43.574;1.276;2023-06-05T02:39:51;9.05;;;4.50;;
31978;SDS011;18502;43.574;1.276;2023-06-05T02:42:17;7.18;;;4.07;;
31978;SDS011;18502;43.574;1.276;2023-06-05T02:44:44;5.95;;;3.90;;
31978;SDS011;18502;43.574;1.276;2023-06-05T02:47:10;8.15;;;4.05;;
31978;SDS011;18502;43.574;1.276;2023-06-05T02:49:35;6.25;;;3.63;;
31978;SDS011;18502;43.574;1.276;2023-06-05T02:52:02;6.65;;;4.30;;
31978;SDS011;18502;43.574;1.276;2023-06-05T02:54:28;4.53;;;3.90;;
31978;SDS011;18502;43.574;1.276;2023-06-05T02:56:54;4.88;;;3.97;;
31978;SDS011;18502;43.574;1.276;2023-06-05T02:59:21;6.68;;;4.05;;
31978;SDS011;18502;43.574;1.276;2023-06-05T03:01:50;9.20;;;4.15;;
31978;SDS011;18502;43.574;1.276;2023-06-05T03:04:16;6.90;;;4.57;;
31978;SDS011;18502;43.574;1.276;2023-06-05T03:06:46;4.28;;;3.88;;
31978;SDS011;18502;43.574;1.276;2023-06-05T03:09:15;8.25;;;4.68;;
31978;SDS011;18502;43.574;1.276;2023-06-05T03:11:42;5.40;;;4.45;;
31978;SDS011;18502;43.574;1.276;2023-06-05T03:14:08;6.20;;;4.88;;
31978;SDS011;18502;43.574;1.276;2023-06-05T03:16:34;10.15;;;5.05;;
31978;SDS011;18502;43.574;1.276;2023-06-05T03:19:06;8.38;;;4.72;;
31978;SDS011;18502;43.574;1.276;2023-06-05T03:21:33;13.18;;;4.97;;
31978;SDS011;18502;43.574;1.276;2023-06-05T03:24:00;6.70;;;4.60;;
31978;SDS011;18502;43.574;1.276;2023-06-05T03:26:26;6.38;;;4.72;;
31978;SDS011;18502;43.574;1.276;2023-06-05T03:28:53;8.27;;;5.38;;
31978;SDS011;18502;43.574;1.276;2023-06-05T03:31:19;9.30;;;5.38;;
31978;SDS011;18502;43.574;1.276;2023-06-05T03:33:45;10.23;;;5.40;;
31978;SDS011;18502;43.574;1.276;2023-06-05T03:36:11;7.35;;;5.35;;
31978;SDS011;18502;43.574;1.276;2023-06-05T03:38:36;6.10;;;5.05;;
31978;SDS011;18502;43.574;1.276;2023-06-05T03:41:02;12.45;;;5.25;;
31978;SDS011;18502;43.574;1.276;2023-06-05T03:43:27;11.23;;;6.40;;
31978;SDS011;18502;43.574;1.276;2023-06-05T03:45:53;7.70;;;5.30;;
31978;SDS011;18502;43.574;1.276;2023-06-05T03:48:19;6.68;;;5.32;;
31978;SDS011;18502;43.574;1.276;2023-06-05T03:50:46;8.00;;;5.60;;
31978;SDS011;18502;43.574;1.276;2023-06-05T03:53:12;7.88;;;5.32;;
31978;SDS011;18502;43.574;1.276;2023-06-05T03:55:39;9.93;;;6.05;;
31978;SDS011;18502;43.574;1.276;2023-06-05T03:58:13;10.65;;;7.03;;
31978;SDS011;18502;43.574;1.276;2023-06-05T04:00:43;14.10;;;7.30;;
31978;SDS011;18502;43.574;1.276;2023-06-05T04:03:10;11.63;;;6.50;;
31978;SDS011;18502;43.574;1.276;2023-06-05T04:05:36;10.32;;;6.85;;
31978;SDS011;18502;43.574;1.276;2023-06-05T04:08:03;10.45;;;6.30;;
31978;SDS011;18502;43.574;1.276;2023-06-05T04:10:29;10.45;;;6.90;;
31978;SDS011;18502;43.574;1.276;2023-06-05T04:12:55;9.50;;;7.00;;
31978;SDS011;18502;43.574;1.276;2023-06-05T04:15:24;11.35;;;6.80;;
31978;SDS011;18502;43.574;1.276;2023-06-05T04:17:50;10.57;;;8.23;;
31978;SDS011;18502;43.574;1.276;2023-06-05T04:20:16;19.35;;;9.05;;
31978;SDS011;18502;43.574;1.276;2023-06-05T04:22:42;14.20;;;8.32;;
31978;SDS011;18502;43.574;1.276;2023-06-05T04:25:08;11.73;;;8.07;;
31978;SDS011;18502;43.574;1.276;2023-06-05T04:27:40;14.93;;;8.65;;
31978;SDS011;18502;43.574;1.276;2023-06-05T04:32:34;16.33;;;8.70;;
31978;SDS011;18502;43.574;1.276;2023-06-05T04:35:11;11.35;;;7.13;;
31978;SDS011;18502;43.574;1.276;2023-06-05T04:37:37;13.27;;;8.50;;
31978;SDS011;18502;43.574;1.276;2023-06-05T04:40:04;15.65;;;8.07;;
31978;SDS011;18502;43.574;1.276;2023-06-05T04:42:31;11.40;;;7.43;;
31978;SDS011;18502;43.574;1.276;2023-06-05T04:45:04;10.52;;;7.53;;
31978;SDS011;18502;43.574;1.276;2023-06-05T04:47:32;10.57;;;7.88;;
31978;SDS011;18502;43.574;1.276;2023-06-05T04:49:59;15.57;;;8.25;;
31978;SDS011;18502;43.574;1.276;2023-06-05T04:52:28;8.93;;;7.20;;
31978;SDS011;18502;43.574;1.276;2023-06-05T04:54:55;11.88;;;6.15;;
31978;SDS011;18502;43.574;1.276;2023-06-05T04:57:22;11.95;;;7.70;;
31978;SDS011;18502;43.574;1.276;2023-06-05T04:59:51;13.27;;;8.50;;
31978;SDS011;18502;43.574;1.276;2023-06-05T05:02:17;12.35;;;8.48;;
31978;SDS011;18502;43.574;1.276;2023-06-05T05:04:43;13.95;;;7.75;;
31978;SDS011;18502;43.574;1.276;2023-06-05T05:07:08;10.30;;;6.90;;
31978;SDS011;18502;43.574;1.276;2023-06-05T05:09:40;11.70;;;7.45;;
31978;SDS011;18502;43.574;1.276;2023-06-05T05:12:06;11.30;;;6.53;;
31978;SDS011;18502;43.574;1.276;2023-06-05T05:14:32;9.80;;;6.88;;
31978;SDS011;18502;43.574;1.276;2023-06-05T05:16:58;12.88;;;8.15;;
31978;SDS011;18502;43.574;1.276;2023-06-05T05:19:24;9.93;;;6.35;;
31978;SDS011;18502;43.574;1.276;2023-06-05T05:21:49;12.13;;;6.95;;
31978;SDS011;18502;43.574;1.276;2023-06-05T05:24:15;10.30;;;7.57;;
31978;SDS011;18502;43.574;1.276;2023-06-05T05:26:41;10.15;;;6.85;;
31978;SDS011;18502;43.574;1.276;2023-06-05T05:29:07;12.38;;;7.10;;
31978;SDS011;18502;43.574;1.276;2023-06-05T05:31:33;11.27;;;7.13;;
31978;SDS011;18502;43.574;1.276;2023-06-05T05:33:58;14.70;;;8.05;;
31978;SDS011;18502;43.574;1.276;2023-06-05T05:36:25;11.18;;;8.57;;
31978;SDS011;18502;43.574;1.276;2023-06-05T05:38:51;11.80;;;8.15;;
31978;SDS011;18502;43.574;1.276;2023-06-05T05:41:18;8.40;;;6.95;;
31978;SDS011;18502;43.574;1.276;2023-06-05T05:43:43;9.30;;;7.00;;
31978;SDS011;18502;43.574;1.276;2023-06-05T05:46:10;9.30;;;6.68;;
31978;SDS011;18502;43.574;1.276;2023-06-05T05:48:36;13.13;;;7.10;;
31978;SDS011;18502;43.574;1.276;2023-06-05T05:51:02;13.57;;;7.43;;
31978;SDS011;18502;43.574;1.276;2023-06-05T05:53:28;12.48;;;6.82;;
31978;SDS011;18502;43.574;1.276;2023-06-05T05:55:54;7.60;;;6.68;;
31978;SDS011;18502;43.574;1.276;2023-06-05T05:58:19;8.70;;;6.63;;
31978;SDS011;18502;43.574;1.276;2023-06-05T06:00:45;11.55;;;6.90;;
31978;SDS011;18502;43.574;1.276;2023-06-05T06:03:11;8.52;;;6.55;;
31978;SDS011;18502;43.574;1.276;2023-06-05T06:05:38;8.75;;;5.75;;
31978;SDS011;18502;43.574;1.276;2023-06-05T06:08:04;8.10;;;5.90;;
31978;SDS011;18502;43.574;1.276;2023-06-05T06:10:31;9.98;;;6.20;;
31978;SDS011;18502;43.574;1.276;2023-06-05T06:12:57;8.82;;;5.97;;
31978;SDS011;18502;43.574;1.276;2023-06-05T06:15:23;8.32;;;5.82;;
31978;SDS011;18502;43.574;1.276;2023-06-05T06:17:49;7.70;;;6.50;;
31978;SDS011;18502;43.574;1.276;2023-06-05T06:20:15;12.82;;;7.57;;
31978;SDS011;18502;43.574;1.276;2023-06-05T06:22:41;9.50;;;6.82;;
31978;SDS011;18502;43.574;1.276;2023-06-05T06:25:07;12.27;;;6.30;;
31978;SDS011;18502;43.574;1.276;2023-06-05T06:27:37;12.32;;;6.65;;
31978;SDS011;18502;43.574;1.276;2023-06-05T06:30:04;10.38;;;6.38;;
31978;SDS011;18502;43.574;1.276;2023-06-05T06:32:30;10.15;;;6.15;;
31978;SDS011;18502;43.574;1.276;2023-06-05T06:34:56;13.50;;;6.85;;
31978;SDS011;18502;43.574;1.276;2023-06-05T06:37:22;16.15;;;8.00;;
31978;SDS011;18502;43.574;1.276;2023-06-05T06:39:48;9.77;;;6.30;;
31978;SDS011;18502;43.574;1.276;2023-06-05T06:42:14;9.68;;;6.65;;
31978;SDS011;18502;43.574;1.276;2023-06-05T06:44:40;10.00;;;6.80;;
31978;SDS011;18502;43.574;1.276;2023-06-05T06:47:06;10.13;;;6.22;;
31978;SDS011;18502;43.574;1.276;2023-06-05T06:49:35;17.10;;;7.32;;
31978;SDS011;18502;43.574;1.276;2023-06-05T06:52:01;10.98;;;7.57;;
31978;SDS011;18502;43.574;1.276;2023-06-05T06:54:27;12.43;;;6.57;;
31978;SDS011;18502;43.574;1.276;2023-06-05T06:56:54;8.45;;;6.53;;
31978;SDS011;18502;43.574;1.276;2023-06-05T06:59:20;13.52;;;7.03;;
31978;SDS011;18502;43.574;1.276;2023-06-05T07:01:47;11.05;;;7.20;;
31978;SDS011;18502;43.574;1.276;2023-06-05T07:04:32;10.25;;;6.60;;
31978;SDS011;18502;43.574;1.276;2023-06-05T07:06:58;12.77;;;7.85;;
31978;SDS011;18502;43.574;1.276;2023-06-05T07:09:24;9.88;;;7.07;;
31978;SDS011;18502;43.574;1.276;2023-06-05T07:11:50;10.02;;;6.75;;
31978;SDS011;18502;43.574;1.276;2023-06-05T07:14:16;7.65;;;6.75;;
31978;SDS011;18502;43.574;1.276;2023-06-05T07:16:41;13.15;;;7.00;;
31978;SDS011;18502;43.574;1.276;2023-06-05T07:19:07;8.90;;;7.03;;
31978;SDS011;18502;43.574;1.276;2023-06-05T07:21:32;11.32;;;6.82;;
31978;SDS011;18502;43.574;1.276;2023-06-05T07:24:02;11.35;;;6.28;;
31978;SDS011;18502;43.574;1.276;2023-06-05T07:26:29;11.52;;;7.18;;
31978;SDS011;18502;43.574;1.276;2023-06-05T07:28:55;11.88;;;7.03;;
31978;SDS011;18502;43.574;1.276;2023-06-05T07:31:21;11.05;;;7.13;;
31978;SDS011;18502;43.574;1.276;2023-06-05T07:33:46;9.30;;;6.90;;
31978;SDS011;18502;43.574;1.276;2023-06-05T07:36:13;12.10;;;7.10;;
31978;SDS011;18502;43.574;1.276;2023-06-05T07:38:39;10.07;;;6.32;;
31978;SDS011;18502;43.574;1.276;2023-06-05T07:41:06;9.50;;;6.72;;
31978;SDS011;18502;43.574;1.276;2023-06-05T07:43:36;8.18;;;6.80;;
31978;SDS011;18502;43.574;1.276;2023-06-05T07:46:04;9.97;;;6.60;;
31978;SDS011;18502;43.574;1.276;2023-06-05T07:48:30;11.60;;;6.90;;
31978;SDS011;18502;43.574;1.276;2023-06-05T07:50:56;9.10;;;6.90;;
31978;SDS011;18502;43.574;1.276;2023-06-05T07:53:22;7.75;;;6.20;;
31978;SDS011;18502;43.574;1.276;2023-06-05T07:55:48;10.05;;;6.28;;
31978;SDS011;18502;43.574;1.276;2023-06-05T07:58:14;9.93;;;6.45;;
31978;SDS011;18502;43.574;1.276;2023-06-05T08:00:42;9.95;;;6.60;;
31978;SDS011;18502;43.574;1.276;2023-06-05T08:03:12;9.23;;;6.70;;
31978;SDS011;18502;43.574;1.276;2023-06-05T08:05:48;12.07;;;7.32;;
31978;SDS011;18502;43.574;1.276;2023-06-05T08:08:15;8.10;;;6.20;;
31978;SDS011;18502;43.574;1.276;2023-06-05T08:10:41;9.48;;;6.53;;
31978;SDS011;18502;43.574;1.276;2023-06-05T08:13:10;8.88;;;6.85;;
31978;SDS011;18502;43.574;1.276;2023-06-05T08:15:36;9.27;;;6.57;;
31978;SDS011;18502;43.574;1.276;2023-06-05T08:18:01;8.70;;;6.10;;
31978;SDS011;18502;43.574;1.276;2023-06-05T08:20:27;8.25;;;6.22;;
31978;SDS011;18502;43.574;1.276;2023-06-05T08:22:54;10.88;;;6.57;;
31978;SDS011;18502;43.574;1.276;2023-06-05T08:25:22;10.55;;;6.90;;
31978;SDS011;18502;43.574;1.276;2023-06-05T08:27:48;12.30;;;7.43;;
31978;SDS011;18502;43.574;1.276;2023-06-05T08:30:15;11.15;;;6.32;;
31978;SDS011;18502;43.574;1.276;2023-06-05T08:32:42;7.90;;;6.07;;
31978;SDS011;18502;43.574;1.276;2023-06-05T08:35:08;11.85;;;7.05;;
31978;SDS011;18502;43.574;1.276;2023-06-05T08:37:35;13.40;;;6.65;;
31978;SDS011;18502;43.574;1.276;2023-06-05T08:40:01;8.82;;;6.80;;
31978;SDS011;18502;43.574;1.276;2023-06-05T08:42:37;7.05;;;6.20;;
31978;SDS011;18502;43.574;1.276;2023-06-05T08:45:07;6.72;;;5.38;;
31978;SDS011;18502;43.574;1.276;2023-06-05T08:47:35;10.13;;;5.57;;
31978;SDS011;18502;43.574;1.276;2023-06-05T08:50:07;9.55;;;6.82;;
31978;SDS011;18502;43.574;1.276;2023-06-05T08:52:34;8.95;;;6.00;;
31978;SDS011;18502;43.574;1.276;2023-06-05T08:55:05;5.95;;;5.13;;
31978;SDS011;18502;43.574;1.276;2023-06-05T09:00:01;8.43;;;5.25;;
31978;SDS011;18502;43.574;1.276;2023-06-05T09:02:32;8.38;;;5.32;;
31978;SDS011;18502;43.574;1.276;2023-06-05T09:04:58;8.88;;;5.55;;
31978;SDS011;18502;43.574;1.276;2023-06-05T09:07:26;7.10;;;5.05;;
31978;SDS011;18502;43.574;1.276;2023-06-05T09:09:53;18.98;;;6.30;;
31978;SDS011;18502;43.574;1.276;2023-06-05T09:12:19;8.48;;;5.60;;
31978;SDS011;18502;43.574;1.276;2023-06-05T09:14:45;8.20;;;5.68;;
31978;SDS011;18502;43.574;1.276;2023-06-05T09:17:12;11.10;;;5.40;;
31978;SDS011;18502;43.574;1.276;2023-06-05T09:19:39;5.90;;;5.15;;
31978;SDS011;18502;43.574;1.276;2023-06-05T09:22:09;7.50;;;6.10;;
31978;SDS011;18502;43.574;1.276;2023-06-05T09:24:37;8.32;;;5.78;;
31978;SDS011;18502;43.574;1.276;2023-06-05T09:27:09;9.32;;;5.47;;
31978;SDS011;18502;43.574;1.276;2023-06-05T09:29:39;7.20;;;5.50;;
31978;SDS011;18502;43.574;1.276;2023-06-05T09:32:07;7.47;;;5.57;;
31978;SDS011;18502;43.574;1.276;2023-06-05T09:34:34;8.52;;;5.50;;
31978;SDS011;18502;43.574;1.276;2023-06-05T09:37:02;5.65;;;5.15;;
31978;SDS011;18502;43.574;1.276;2023-06-05T09:39:30;9.00;;;5.50;;
31978;SDS011;18502;43.574;1.276;2023-06-05T09:41:58;7.53;;;5.00;;
31978;SDS011;18502;43.574;1.276;2023-06-05T09:44:25;8.55;;;5.57;;
31978;SDS011;18502;43.574;1.276;2023-06-05T09:49:31;7.13;;;5.72;;
31978;SDS011;18502;43.574;1.276;2023-06-05T09:51:58;8.77;;;4.88;;
31978;SDS011;18502;43.574;1.276;2023-06-05T09:54:26;8.07;;;4.82;;
31978;SDS011;18502;43.574;1.276;2023-06-05T09:56:56;8.60;;;5.63;;
31978;SDS011;18502;43.574;1.276;2023-06-05T09:59:33;7.35;;;5.25;;
31978;SDS011;18502;43.574;1.276;2023-06-05T10:02:02;6.07;;;4.60;;
31978;SDS011;18502;43.574;1.276;2023-06-05T10:05:17;7.97;;;5.30;;
31978;SDS011;18502;43.574;1.276;2023-06-05T10:07:32;6.28;;;5.00;;
31978;SDS011;18502;43.574;1.276;2023-06-05T10:10:00;7.30;;;5.38;;
31978;SDS011;18502;43.574;1.276;2023-06-05T10:12:26;8.80;;;4.60;;
31978;SDS011;18502;43.574;1.276;2023-06-05T10:14:55;6.43;;;4.57;;
31978;SDS011;18502;43.574;1.276;2023-06-05T10:17:23;7.15;;;4.50;;
31978;SDS011;18502;43.574;1.276;2023-06-05T10:19:49;8.93;;;4.85;;
31978;SDS011;18502;43.574;1.276;2023-06-05T10:22:16;5.85;;;4.53;;
31978;SDS011;18502;43.574;1.276;2023-06-05T10:24:51;7.30;;;5.05;;
31978;SDS011;18502;43.574;1.276;2023-06-05T10:38:02;8.30;;;4.63;;
31978;SDS011;18502;43.574;1.276;2023-06-05T10:40:57;6.72;;;4.70;;
31978;SDS011;18502;43.574;1.276;2023-06-05T10:45:51;6.50;;;4.30;;
31978;SDS011;18502;43.574;1.276;2023-06-05T10:48:18;5.95;;;4.05;;
31978;SDS011;18502;43.574;1.276;2023-06-05T10:50:44;4.45;;;3.90;;
31978;SDS011;18502;43.574;1.276;2023-06-05T10:56:07;6.22;;;4.53;;
31978;SDS011;18502;43.574;1.276;2023-06-05T10:58:33;6.82;;;4.43;;
31978;SDS011;18502;43.574;1.276;2023-06-05T11:04:00;6.38;;;4.13;;
31978;SDS011;18502;43.574;1.276;2023-06-05T11:06:26;6.07;;;3.78;;
31978;SDS011;18502;43.574;1.276;2023-06-05T11:14:42;6.40;;;3.72;;
31978;SDS011;18502;43.574;1.276;2023-06-05T11:17:29;7.57;;;3.72;;
31978;SDS011;18502;43.574;1.276;2023-06-05T11:19:58;8.63;;;4.53;;
31978;SDS011;18502;43.574;1.276;2023-06-05T11:22:24;6.47;;;3.58;;
31978;SDS011;18502;43.574;1.276;2023-06-05T11:27:42;4.60;;;3.47;;
31978;SDS011;18502;43.574;1.276;2023-06-05T11:30:11;4.93;;;3.20;;
31978;SDS011;18502;43.574;1.276;2023-06-05T11:32:38;4.40;;;2.92;;
31978;SDS011;18502;43.574;1.276;2023-06-05T11:35:04;3.20;;;2.80;;
31978;SDS011;18502;43.574;1.276;2023-06-05T11:37:30;4.57;;;3.13;;
31978;SDS011;18502;43.574;1.276;2023-06-05T11:39:59;5.35;;;2.88;;
31978;SDS011;18502;43.574;1.276;2023-06-05T11:42:38;4.13;;;3.20;;
31978;SDS011;18502;43.574;1.276;2023-06-05T11:45:13;3.28;;;2.97;;
31978;SDS011;18502;43.574;1.276;2023-06-05T11:47:40;4.80;;;3.58;;
31978;SDS011;18502;43.574;1.276;2023-06-05T11:50:13;5.32;;;3.80;;
31978;SDS011;18502;43.574;1.276;2023-06-05T11:52:40;3.40;;;2.70;;
31978;SDS011;18502;43.574;1.276;2023-06-05T11:55:17;4.53;;;3.05;;
31978;SDS011;18502;43.574;1.276;2023-06-05T11:57:54;4.57;;;3.05;;
31978;SDS011;18502;43.574;1.276;2023-06-05T12:00:25;5.97;;;3.13;;
31978;SDS011;18502;43.574;1.276;2023-06-05T12:02:51;3.88;;;3.00;;
31978;SDS011;18502;43.574;1.276;2023-06-05T12:05:17;4.15;;;3.17;;
31978;SDS011;18502;43.574;1.276;2023-06-05T12:07:42;8.05;;;3.67;;
31978;SDS011;18502;43.574;1.276;2023-06-05T12:10:08;4.70;;;2.88;;
31978;SDS011;18502;43.574;1.276;2023-06-05T12:12:35;5.45;;;2.53;;
31978;SDS011;18502;43.574;1.276;2023-06-05T12:17:40;6.13;;;2.60;;
31978;SDS011;18502;43.574;1.276;2023-06-05T12:20:13;4.82;;;3.17;;
31978;SDS011;18502;43.574;1.276;2023-06-05T12:22:39;7.07;;;3.33;;
31978;SDS011;18502;43.574;1.276;2023-06-05T12:25:16;4.13;;;2.53;;
31978;SDS011;18502;43.574;1.276;2023-06-05T12:27:45;6.00;;;2.90;;
31978;SDS011;18502;43.574;1.276;2023-06-05T12:30:12;3.17;;;2.88;;
31978;SDS011;18502;43.574;1.276;2023-06-05T12:32:39;3.75;;;2.97;;
31978;SDS011;18502;43.574;1.276;2023-06-05T12:35:05;3.08;;;2.42;;
31978;SDS011;18502;43.574;1.276;2023-06-05T12:37:42;3.97;;;2.65;;
31978;SDS011;18502;43.574;1.276;2023-06-05T12:40:10;5.35;;;3.22;;
31978;SDS011;18502;43.574;1.276;2023-06-05T12:42:40;4.30;;;2.63;;
31978;SDS011;18502;43.574;1.276;2023-06-05T12:45:08;5.53;;;2.47;;
31978;SDS011;18502;43.574;1.276;2023-06-05T12:47:35;2.38;;;2.13;;
31978;SDS011;18502;43.574;1.276;2023-06-05T12:50:02;3.30;;;2.10;;
31978;SDS011;18502;43.574;1.276;2023-06-05T12:52:32;2.53;;;2.30;;
31978;SDS011;18502;43.574;1.276;2023-06-05T12:54:58;2.58;;;2.15;;
31978;SDS011;18502;43.574;1.276;2023-06-05T12:57:26;4.03;;;2.30;;
31978;SDS011;18502;43.574;1.276;2023-06-05T12:59:52;1.77;;;1.55;;
31978;SDS011;18502;43.574;1.276;2023-06-05T13:02:19;3.22;;;2.38;;
31978;SDS011;18502;43.574;1.276;2023-06-05T13:04:45;1.83;;;1.63;;
31978;SDS011;18502;43.574;1.276;2023-06-05T13:07:11;2.50;;;2.30;;
31978;SDS011;18502;43.574;1.276;2023-06-05T13:09:37;2.33;;;2.13;;
31978;SDS011;18502;43.574;1.276;2023-06-05T13:12:03;1.88;;;1.77;;
31978;SDS011;18502;43.574;1.276;2023-06-05T13:14:29;2.92;;;2.67;;
31978;SDS011;18502;43.574;1.276;2023-06-05T13:16:59;4.95;;;2.65;;
31978;SDS011;18502;43.574;1.276;2023-06-05T13:19:26;2.47;;;2.20;;
31978;SDS011;18502;43.574;1.276;2023-06-05T13:21:51;2.80;;;1.80;;
31978;SDS011;18502;43.574;1.276;2023-06-05T13:24:18;2.17;;;1.98;;
31978;SDS011;18502;43.574;1.276;2023-06-05T13:26:44;2.95;;;2.10;;
31978;SDS011;18502;43.574;1.276;2023-06-05T13:29:11;5.80;;;2.25;;
31978;SDS011;18502;43.574;1.276;2023-06-05T13:31:38;5.55;;;2.30;;
31978;SDS011;18502;43.574;1.276;2023-06-05T13:34:05;2.38;;;2.17;;
31978;SDS011;18502;43.574;1.276;2023-06-05T13:36:31;3.53;;;2.50;;
31978;SDS011;18502;43.574;1.276;2023-06-05T13:38:56;3.30;;;2.33;;
31978;SDS011;18502;43.574;1.276;2023-06-05T13:41:22;4.05;;;2.45;;
31978;SDS011;18502;43.574;1.276;2023-06-05T13:43:48;2.85;;;2.38;;
31978;SDS011;18502;43.574;1.276;2023-06-05T13:46:14;2.58;;;2.22;;
31978;SDS011;18502;43.574;1.276;2023-06-05T13:48:39;2.70;;;2.25;;
31978;SDS011;18502;43.574;1.276;2023-06-05T13:51:05;2.00;;;1.73;;
31978;SDS011;18502;43.574;1.276;2023-06-05T13:53:31;2.38;;;2.17;;
31978;SDS011;18502;43.574;1.276;2023-06-05T13:56:05;3.78;;;2.25;;
31978;SDS011;18502;43.574;1.276;2023-06-05T13:58:31;2.70;;;2.50;;
31978;SDS011;18502;43.574;1.276;2023-06-05T14:00:57;3.35;;;2.38;;
31978;SDS011;18502;43.574;1.276;2023-06-05T14:03:24;4.28;;;2.53;;
31978;SDS011;18502;43.574;1.276;2023-06-05T14:05:50;3.03;;;2.30;;
31978;SDS011;18502;43.574;1.276;2023-06-05T14:08:16;2.03;;;1.88;;
31978;SDS011;18502;43.574;1.276;2023-06-05T14:10:41;2.47;;;2.05;;
31978;SDS011;18502;43.574;1.276;2023-06-05T14:13:07;4.03;;;2.15;;
31978;SDS011;18502;43.574;1.276;2023-06-05T14:15:33;2.72;;;1.85;;
31978;SDS011;18502;43.574;1.276;2023-06-05T14:18:03;2.13;;;1.75;;
31978;SDS011;18502;43.574;1.276;2023-06-05T14:20:30;4.50;;;2.20;;
31978;SDS011;18502;43.574;1.276;2023-06-05T14:22:57;3.30;;;1.70;;
31978;SDS011;18502;43.574;1.276;2023-06-05T14:25:23;3.45;;;1.83;;
31978;SDS011;18502;43.574;1.276;2023-06-05T14:27:53;2.90;;;2.03;;
31978;SDS011;18502;43.574;1.276;2023-06-05T14:30:20;2.40;;;2.00;;
31978;SDS011;18502;43.574;1.276;2023-06-05T14:32:46;3.35;;;2.35;;
31978;SDS011;18502;43.574;1.276;2023-06-05T14:35:12;1.95;;;1.75;;
31978;SDS011;18502;43.574;1.276;2023-06-05T14:37:38;3.72;;;2.15;;
31978;SDS011;18502;43.574;1.276;2023-06-05T14:40:04;5.10;;;1.95;;
31978;SDS011;18502;43.574;1.276;2023-06-05T14:42:31;5.97;;;1.85;;
31978;SDS011;18502;43.574;1.276;2023-06-05T14:44:56;1.65;;;1.55;;
31978;SDS011;18502;43.574;1.276;2023-06-05T14:47:22;2.20;;;1.98;;
31978;SDS011;18502;43.574;1.276;2023-06-05T14:49:48;4.43;;;1.80;;
31978;SDS011;18502;43.574;1.276;2023-06-05T14:52:14;4.32;;;1.95;;
31978;SDS011;18502;43.574;1.276;2023-06-05T14:54:40;3.60;;;2.03;;
31978;SDS011;18502;43.574;1.276;2023-06-05T14:57:06;2.22;;;1.52;;
31978;SDS011;18502;43.574;1.276;2023-06-05T14:59:32;3.15;;;1.70;;
31978;SDS011;18502;43.574;1.276;2023-06-05T15:01:58;2.50;;;1.85;;
31978;SDS011;18502;43.574;1.276;2023-06-05T15:04:25;3.85;;;1.92;;
31978;SDS011;18502;43.574;1.276;2023-06-05T15:06:51;2.45;;;1.60;;
31978;SDS011;18502;43.574;1.276;2023-06-05T15:09:18;3.88;;;1.70;;
31978;SDS011;18502;43.574;1.276;2023-06-05T15:11:45;3.35;;;1.48;;
31978;SDS011;18502;43.574;1.276;2023-06-05T15:14:10;3.38;;;1.80;;
31978;SDS011;18502;43.574;1.276;2023-06-05T15:16:36;2.47;;;1.65;;
31978;SDS011;18502;43.574;1.276;2023-06-05T15:19:02;1.92;;;1.40;;
31978;SDS011;18502;43.574;1.276;2023-06-05T15:21:27;1.70;;;1.58;;
31978;SDS011;18502;43.574;1.276;2023-06-05T15:23:53;4.00;;;1.50;;
31978;SDS011;18502;43.574;1.276;2023-06-05T15:26:19;3.70;;;1.80;;
31978;SDS011;18502;43.574;1.276;2023-06-05T15:28:46;3.25;;;1.48;;
31978;SDS011;18502;43.574;1.276;2023-06-05T15:31:12;2.58;;;1.92;;
31978;SDS011;18502;43.574;1.276;2023-06-05T15:33:38;2.30;;;1.42;;